PGUM/GUM METAR and TAF weather

Enter ICAO airport designator
Station Type Date Time Source
PGUM METAR 2020/01/27 16:54 UTC NOAA

PGUM 271654Z 09007KT 9SM FEW010 SCT029 OVC045 25/23 A2989 RMK AO2 SLP113 T02500233


Station Type Date Time Source
PGUM Decoded METAR 2020/01/27 16:54 UTC NOAA

Agana, Guam International Airport, GU, United States (PGUM) 13-29N 144-48E
Jan 27, 2020 - 11:54 AM EST / 2020.01.27 1654 UTC
Wind: from the E (090 degrees) at 8 MPH (7 KT):0
Visibility: 9 mile(s):0
Sky conditions: overcast
Temperature: 77.0 F (25.0 C)
Dew Point: 73.9 F (23.3 C)
Relative Humidity: 90%
Pressure (altimeter): 29.89 in. Hg (1012 hPa)
ob: PGUM 271654Z 09007KT 9SM FEW010 SCT029 OVC045 25/23 A2989 RMK AO2 SLP113 T02500233
cycle: 17

Station Type Date Time Source
PGUM TAF 2020/01/27 12:33 UTC NOAA

TAF PGUM 271128Z 2712/2818 09011KT P6SM VCSH SCT020 SCT050
TEMPO 2713/2714 -SHRA SCT010 BKN019 OVC030

Example: see airport list